sensor_id;sensor_type;location;lat;lon;timestamp;P1;durP1;ratioP1;P2;durP2;ratioP2
69623;SDS011;56843;52.020;5.670;2022-08-19T00:00:59;9.07;;;5.05;;
69623;SDS011;56843;52.020;5.670;2022-08-19T00:02:29;7.97;;;4.87;;
69623;SDS011;56843;52.020;5.670;2022-08-19T00:04:02;8.40;;;4.73;;
69623;SDS011;56843;52.020;5.670;2022-08-19T00:05:34;9.15;;;4.20;;
69623;SDS011;56843;52.020;5.670;2022-08-19T00:07:05;9.55;;;4.68;;
69623;SDS011;56843;52.020;5.670;2022-08-19T00:08:36;11.32;;;4.47;;
69623;SDS011;56843;52.020;5.670;2022-08-19T00:10:07;10.93;;;4.70;;
69623;SDS011;56843;52.020;5.670;2022-08-19T00:11:38;10.90;;;4.55;;
69623;SDS011;56843;52.020;5.670;2022-08-19T00:13:08;8.18;;;4.65;;
69623;SDS011;56843;52.020;5.670;2022-08-19T00:14:39;8.73;;;4.87;;
69623;SDS011;56843;52.020;5.670;2022-08-19T00:16:10;10.00;;;4.95;;
69623;SDS011;56843;52.020;5.670;2022-08-19T00:17:42;8.30;;;4.70;;
69623;SDS011;56843;52.020;5.670;2022-08-19T00:19:14;9.75;;;5.43;;
69623;SDS011;56843;52.020;5.670;2022-08-19T00:20:45;9.13;;;5.65;;
69623;SDS011;56843;52.020;5.670;2022-08-19T00:22:15;9.93;;;4.95;;
69623;SDS011;56843;52.020;5.670;2022-08-19T00:23:47;10.43;;;5.37;;
69623;SDS011;56843;52.020;5.670;2022-08-19T00:25:18;9.70;;;4.63;;
69623;SDS011;56843;52.020;5.670;2022-08-19T00:26:48;8.43;;;4.83;;
69623;SDS011;56843;52.020;5.670;2022-08-19T00:28:20;11.35;;;4.78;;
69623;SDS011;56843;52.020;5.670;2022-08-19T00:29:50;11.07;;;4.83;;
69623;SDS011;56843;52.020;5.670;2022-08-19T00:31:21;11.95;;;5.20;;
69623;SDS011;56843;52.020;5.670;2022-08-19T00:32:51;8.50;;;4.67;;
69623;SDS011;56843;52.020;5.670;2022-08-19T00:34:24;10.10;;;5.03;;
69623;SDS011;56843;52.020;5.670;2022-08-19T00:36:01;12.10;;;4.80;;
69623;SDS011;56843;52.020;5.670;2022-08-19T00:37:36;8.68;;;4.70;;
69623;SDS011;56843;52.020;5.670;2022-08-19T00:39:08;12.10;;;4.95;;
69623;SDS011;56843;52.020;5.670;2022-08-19T00:40:42;13.20;;;5.10;;
69623;SDS011;56843;52.020;5.670;2022-08-19T00:42:16;10.23;;;4.80;;
69623;SDS011;56843;52.020;5.670;2022-08-19T00:44:06;12.80;;;5.57;;
69623;SDS011;56843;52.020;5.670;2022-08-19T00:45:40;9.13;;;5.30;;
69623;SDS011;56843;52.020;5.670;2022-08-19T00:47:14;11.43;;;5.70;;
69623;SDS011;56843;52.020;5.670;2022-08-19T00:48:44;10.05;;;5.25;;
69623;SDS011;56843;52.020;5.670;2022-08-19T00:50:16;14.20;;;5.77;;
69623;SDS011;56843;52.020;5.670;2022-08-19T00:51:50;12.18;;;6.28;;
69623;SDS011;56843;52.020;5.670;2022-08-19T00:53:26;10.65;;;5.55;;
69623;SDS011;56843;52.020;5.670;2022-08-19T00:54:58;10.82;;;5.68;;
69623;SDS011;56843;52.020;5.670;2022-08-19T00:56:30;11.77;;;5.82;;
69623;SDS011;56843;52.020;5.670;2022-08-19T00:58:03;15.48;;;5.95;;
69623;SDS011;56843;52.020;5.670;2022-08-19T00:59:36;11.47;;;5.57;;
69623;SDS011;56843;52.020;5.670;2022-08-19T01:01:10;14.47;;;6.13;;
69623;SDS011;56843;52.020;5.670;2022-08-19T01:02:41;13.82;;;6.55;;
69623;SDS011;56843;52.020;5.670;2022-08-19T01:04:12;21.30;;;6.43;;
69623;SDS011;56843;52.020;5.670;2022-08-19T01:05:43;16.60;;;6.88;;
69623;SDS011;56843;52.020;5.670;2022-08-19T01:07:15;12.07;;;6.63;;
69623;SDS011;56843;52.020;5.670;2022-08-19T01:08:46;17.98;;;7.28;;
69623;SDS011;56843;52.020;5.670;2022-08-19T01:10:18;12.57;;;6.10;;
69623;SDS011;56843;52.020;5.670;2022-08-19T01:11:51;13.80;;;6.72;;
69623;SDS011;56843;52.020;5.670;2022-08-19T01:13:23;16.67;;;8.38;;
69623;SDS011;56843;52.020;5.670;2022-08-19T01:14:56;13.50;;;6.65;;
69623;SDS011;56843;52.020;5.670;2022-08-19T01:16:27;19.13;;;7.10;;
69623;SDS011;56843;52.020;5.670;2022-08-19T01:18:01;12.15;;;7.28;;
69623;SDS011;56843;52.020;5.670;2022-08-19T01:19:37;12.47;;;6.00;;
69623;SDS011;56843;52.020;5.670;2022-08-19T01:21:12;12.67;;;6.67;;
69623;SDS011;56843;52.020;5.670;2022-08-19T01:22:54;11.88;;;6.70;;
69623;SDS011;56843;52.020;5.670;2022-08-19T01:24:27;14.30;;;7.15;;
69623;SDS011;56843;52.020;5.670;2022-08-19T01:25:58;15.27;;;6.68;;
69623;SDS011;56843;52.020;5.670;2022-08-19T01:27:36;16.27;;;6.57;;
69623;SDS011;56843;52.020;5.670;2022-08-19T01:29:08;13.18;;;6.07;;
69623;SDS011;56843;52.020;5.670;2022-08-19T01:30:40;14.20;;;6.75;;
69623;SDS011;56843;52.020;5.670;2022-08-19T01:32:11;13.13;;;6.70;;
69623;SDS011;56843;52.020;5.670;2022-08-19T01:33:44;13.35;;;6.32;;
69623;SDS011;56843;52.020;5.670;2022-08-19T01:35:16;12.95;;;6.47;;
69623;SDS011;56843;52.020;5.670;2022-08-19T01:36:48;15.85;;;7.28;;
69623;SDS011;56843;52.020;5.670;2022-08-19T01:38:25;13.38;;;7.15;;
69623;SDS011;56843;52.020;5.670;2022-08-19T01:39:57;11.35;;;6.43;;
69623;SDS011;56843;52.020;5.670;2022-08-19T01:41:27;12.87;;;6.87;;
69623;SDS011;56843;52.020;5.670;2022-08-19T01:42:58;12.13;;;6.27;;
69623;SDS011;56843;52.020;5.670;2022-08-19T01:44:29;12.85;;;6.82;;
69623;SDS011;56843;52.020;5.670;2022-08-19T01:46:00;14.95;;;6.65;;
69623;SDS011;56843;52.020;5.670;2022-08-19T01:47:30;13.13;;;6.30;;
69623;SDS011;56843;52.020;5.670;2022-08-19T01:49:01;16.07;;;6.57;;
69623;SDS011;56843;52.020;5.670;2022-08-19T01:50:33;12.07;;;6.80;;
69623;SDS011;56843;52.020;5.670;2022-08-19T01:52:05;16.45;;;7.80;;
69623;SDS011;56843;52.020;5.670;2022-08-19T01:53:36;13.48;;;6.30;;
69623;SDS011;56843;52.020;5.670;2022-08-19T01:55:08;13.13;;;6.70;;
69623;SDS011;56843;52.020;5.670;2022-08-19T01:56:41;16.85;;;7.60;;
69623;SDS011;56843;52.020;5.670;2022-08-19T01:58:15;12.33;;;7.33;;
69623;SDS011;56843;52.020;5.670;2022-08-19T01:59:50;20.25;;;7.63;;
69623;SDS011;56843;52.020;5.670;2022-08-19T02:01:21;17.27;;;7.22;;
69623;SDS011;56843;52.020;5.670;2022-08-19T02:02:52;11.57;;;6.63;;
69623;SDS011;56843;52.020;5.670;2022-08-19T02:04:22;12.83;;;7.67;;
69623;SDS011;56843;52.020;5.670;2022-08-19T02:05:57;15.52;;;7.72;;
69623;SDS011;56843;52.020;5.670;2022-08-19T02:07:29;15.77;;;7.30;;
69623;SDS011;56843;52.020;5.670;2022-08-19T02:09:00;14.57;;;7.90;;
69623;SDS011;56843;52.020;5.670;2022-08-19T02:10:30;14.30;;;7.57;;
69623;SDS011;56843;52.020;5.670;2022-08-19T02:12:02;15.50;;;7.43;;
69623;SDS011;56843;52.020;5.670;2022-08-19T02:13:33;15.05;;;8.32;;
69623;SDS011;56843;52.020;5.670;2022-08-19T02:15:04;14.30;;;7.60;;
69623;SDS011;56843;52.020;5.670;2022-08-19T02:16:36;15.37;;;7.83;;
69623;SDS011;56843;52.020;5.670;2022-08-19T02:18:06;14.87;;;7.50;;
69623;SDS011;56843;52.020;5.670;2022-08-19T02:19:38;14.43;;;7.07;;
69623;SDS011;56843;52.020;5.670;2022-08-19T02:21:08;16.27;;;7.43;;
69623;SDS011;56843;52.020;5.670;2022-08-19T02:22:39;13.02;;;7.18;;
69623;SDS011;56843;52.020;5.670;2022-08-19T02:24:12;14.48;;;7.57;;
69623;SDS011;56843;52.020;5.670;2022-08-19T02:25:43;20.83;;;8.37;;
69623;SDS011;56843;52.020;5.670;2022-08-19T02:27:16;15.07;;;7.30;;
69623;SDS011;56843;52.020;5.670;2022-08-19T02:28:47;18.20;;;7.93;;
69623;SDS011;56843;52.020;5.670;2022-08-19T02:30:18;13.80;;;8.00;;
69623;SDS011;56843;52.020;5.670;2022-08-19T02:31:49;15.55;;;8.15;;
69623;SDS011;56843;52.020;5.670;2022-08-19T02:33:20;13.40;;;7.13;;
69623;SDS011;56843;52.020;5.670;2022-08-19T02:34:50;13.15;;;7.47;;
69623;SDS011;56843;52.020;5.670;2022-08-19T02:36:21;13.07;;;7.57;;
69623;SDS011;56843;52.020;5.670;2022-08-19T02:37:52;15.70;;;7.80;;
69623;SDS011;56843;52.020;5.670;2022-08-19T02:39:41;15.43;;;7.88;;
69623;SDS011;56843;52.020;5.670;2022-08-19T02:41:13;12.77;;;7.07;;
69623;SDS011;56843;52.020;5.670;2022-08-19T02:42:46;15.02;;;7.63;;
69623;SDS011;56843;52.020;5.670;2022-08-19T02:44:17;15.27;;;7.33;;
69623;SDS011;56843;52.020;5.670;2022-08-19T02:45:48;14.32;;;8.38;;
69623;SDS011;56843;52.020;5.670;2022-08-19T02:47:19;16.23;;;7.90;;
69623;SDS011;56843;52.020;5.670;2022-08-19T02:48:50;14.40;;;7.73;;
69623;SDS011;56843;52.020;5.670;2022-08-19T02:50:22;14.38;;;7.95;;
69623;SDS011;56843;52.020;5.670;2022-08-19T02:51:52;21.35;;;7.70;;
69623;SDS011;56843;52.020;5.670;2022-08-19T02:53:25;16.47;;;8.73;;
69623;SDS011;56843;52.020;5.670;2022-08-19T02:54:57;15.73;;;8.67;;
69623;SDS011;56843;52.020;5.670;2022-08-19T02:56:28;14.73;;;8.40;;
69623;SDS011;56843;52.020;5.670;2022-08-19T02:57:58;18.13;;;9.30;;
69623;SDS011;56843;52.020;5.670;2022-08-19T02:59:30;17.33;;;8.88;;
69623;SDS011;56843;52.020;5.670;2022-08-19T03:01:01;13.73;;;7.45;;
69623;SDS011;56843;52.020;5.670;2022-08-19T03:02:32;17.33;;;8.13;;
69623;SDS011;56843;52.020;5.670;2022-08-19T03:04:03;14.35;;;7.60;;
69623;SDS011;56843;52.020;5.670;2022-08-19T03:05:36;14.73;;;7.50;;
69623;SDS011;56843;52.020;5.670;2022-08-19T03:07:06;14.80;;;8.07;;
69623;SDS011;56843;52.020;5.670;2022-08-19T03:08:37;16.47;;;8.23;;
69623;SDS011;56843;52.020;5.670;2022-08-19T03:10:08;16.10;;;7.70;;
69623;SDS011;56843;52.020;5.670;2022-08-19T03:11:39;15.60;;;7.78;;
69623;SDS011;56843;52.020;5.670;2022-08-19T03:13:11;15.53;;;8.20;;
69623;SDS011;56843;52.020;5.670;2022-08-19T03:14:43;16.67;;;9.18;;
69623;SDS011;56843;52.020;5.670;2022-08-19T03:16:13;18.50;;;9.20;;
69623;SDS011;56843;52.020;5.670;2022-08-19T03:17:44;15.93;;;8.35;;
69623;SDS011;56843;52.020;5.670;2022-08-19T03:19:15;16.07;;;8.20;;
69623;SDS011;56843;52.020;5.670;2022-08-19T03:20:48;18.95;;;8.80;;
69623;SDS011;56843;52.020;5.670;2022-08-19T03:22:23;14.75;;;8.95;;
69623;SDS011;56843;52.020;5.670;2022-08-19T03:23:56;15.90;;;8.02;;
69623;SDS011;56843;52.020;5.670;2022-08-19T03:25:28;16.80;;;8.27;;
69623;SDS011;56843;52.020;5.670;2022-08-19T03:26:58;15.83;;;8.57;;
69623;SDS011;56843;52.020;5.670;2022-08-19T03:28:28;13.77;;;7.57;;
69623;SDS011;56843;52.020;5.670;2022-08-19T03:29:59;14.77;;;8.50;;
69623;SDS011;56843;52.020;5.670;2022-08-19T03:31:30;21.17;;;8.23;;
69623;SDS011;56843;52.020;5.670;2022-08-19T03:33:01;15.35;;;7.97;;
69623;SDS011;56843;52.020;5.670;2022-08-19T03:34:32;17.27;;;9.30;;
69623;SDS011;56843;52.020;5.670;2022-08-19T03:36:14;16.85;;;9.50;;
69623;SDS011;56843;52.020;5.670;2022-08-19T03:37:47;17.45;;;9.23;;
69623;SDS011;56843;52.020;5.670;2022-08-19T03:39:17;21.50;;;9.23;;
69623;SDS011;56843;52.020;5.670;2022-08-19T03:40:48;17.87;;;9.43;;
69623;SDS011;56843;52.020;5.670;2022-08-19T03:42:18;19.27;;;8.80;;
69623;SDS011;56843;52.020;5.670;2022-08-19T03:43:49;23.47;;;9.87;;
69623;SDS011;56843;52.020;5.670;2022-08-19T03:45:19;20.80;;;9.27;;
69623;SDS011;56843;52.020;5.670;2022-08-19T03:46:51;17.53;;;8.43;;
69623;SDS011;56843;52.020;5.670;2022-08-19T03:48:23;20.88;;;9.20;;
69623;SDS011;56843;52.020;5.670;2022-08-19T03:49:54;16.40;;;8.77;;
69623;SDS011;56843;52.020;5.670;2022-08-19T03:51:28;16.23;;;9.23;;
69623;SDS011;56843;52.020;5.670;2022-08-19T03:53:01;18.15;;;8.50;;
69623;SDS011;56843;52.020;5.670;2022-08-19T03:54:31;16.23;;;8.37;;
69623;SDS011;56843;52.020;5.670;2022-08-19T03:56:02;17.95;;;8.13;;
69623;SDS011;56843;52.020;5.670;2022-08-19T03:57:33;16.47;;;7.60;;
69623;SDS011;56843;52.020;5.670;2022-08-19T03:59:05;16.70;;;8.05;;
69623;SDS011;56843;52.020;5.670;2022-08-19T04:00:37;16.70;;;8.77;;
69623;SDS011;56843;52.020;5.670;2022-08-19T04:02:11;17.27;;;8.93;;
69623;SDS011;56843;52.020;5.670;2022-08-19T04:03:42;17.33;;;9.50;;
69623;SDS011;56843;52.020;5.670;2022-08-19T04:05:12;16.47;;;7.80;;
69623;SDS011;56843;52.020;5.670;2022-08-19T04:06:44;14.65;;;7.13;;
69623;SDS011;56843;52.020;5.670;2022-08-19T04:08:17;13.10;;;7.07;;
69623;SDS011;56843;52.020;5.670;2022-08-19T04:09:50;15.90;;;7.75;;
69623;SDS011;56843;52.020;5.670;2022-08-19T04:11:23;14.40;;;7.63;;
69623;SDS011;56843;52.020;5.670;2022-08-19T04:12:56;16.77;;;8.40;;
69623;SDS011;56843;52.020;5.670;2022-08-19T04:14:27;14.20;;;7.57;;
69623;SDS011;56843;52.020;5.670;2022-08-19T04:16:02;14.50;;;8.27;;
69623;SDS011;56843;52.020;5.670;2022-08-19T04:17:34;19.13;;;9.10;;
69623;SDS011;56843;52.020;5.670;2022-08-19T04:19:05;17.40;;;9.50;;
69623;SDS011;56843;52.020;5.670;2022-08-19T04:20:40;17.58;;;9.68;;
69623;SDS011;56843;52.020;5.670;2022-08-19T04:22:16;18.33;;;9.65;;
69623;SDS011;56843;52.020;5.670;2022-08-19T04:23:46;20.50;;;8.33;;
69623;SDS011;56843;52.020;5.670;2022-08-19T04:25:17;20.20;;;7.97;;
69623;SDS011;56843;52.020;5.670;2022-08-19T04:26:48;17.23;;;8.67;;
69623;SDS011;56843;52.020;5.670;2022-08-19T04:28:19;20.57;;;9.03;;
69623;SDS011;56843;52.020;5.670;2022-08-19T04:29:50;18.30;;;9.27;;
69623;SDS011;56843;52.020;5.670;2022-08-19T04:31:21;18.63;;;8.40;;
69623;SDS011;56843;52.020;5.670;2022-08-19T04:32:56;15.88;;;8.55;;
69623;SDS011;56843;52.020;5.670;2022-08-19T04:34:28;13.40;;;7.38;;
69623;SDS011;56843;52.020;5.670;2022-08-19T04:35:59;17.93;;;8.27;;
69623;SDS011;56843;52.020;5.670;2022-08-19T04:37:30;18.38;;;8.27;;
69623;SDS011;56843;52.020;5.670;2022-08-19T04:39:05;14.43;;;7.45;;
69623;SDS011;56843;52.020;5.670;2022-08-19T04:40:44;18.30;;;8.60;;
69623;SDS011;56843;52.020;5.670;2022-08-19T04:42:36;16.85;;;9.15;;
69623;SDS011;56843;52.020;5.670;2022-08-19T04:44:09;18.38;;;9.25;;
69623;SDS011;56843;52.020;5.670;2022-08-19T04:45:44;18.90;;;9.53;;
69623;SDS011;56843;52.020;5.670;2022-08-19T04:47:15;19.53;;;8.93;;
69623;SDS011;56843;52.020;5.670;2022-08-19T04:48:46;15.48;;;7.97;;
69623;SDS011;56843;52.020;5.670;2022-08-19T04:50:16;18.30;;;9.17;;
69623;SDS011;56843;52.020;5.670;2022-08-19T04:51:49;21.13;;;9.13;;
69623;SDS011;56843;52.020;5.670;2022-08-19T04:53:22;20.45;;;9.60;;
69623;SDS011;56843;52.020;5.670;2022-08-19T04:54:59;18.02;;;9.60;;
69623;SDS011;56843;52.020;5.670;2022-08-19T04:56:30;20.53;;;10.60;;
69623;SDS011;56843;52.020;5.670;2022-08-19T04:58:01;17.53;;;10.10;;
69623;SDS011;56843;52.020;5.670;2022-08-19T04:59:32;18.58;;;9.45;;
69623;SDS011;56843;52.020;5.670;2022-08-19T05:01:03;18.20;;;9.45;;
69623;SDS011;56843;52.020;5.670;2022-08-19T05:02:34;17.48;;;9.93;;
69623;SDS011;56843;52.020;5.670;2022-08-19T05:04:05;21.75;;;9.27;;
69623;SDS011;56843;52.020;5.670;2022-08-19T05:05:40;18.25;;;9.30;;
69623;SDS011;56843;52.020;5.670;2022-08-19T05:07:11;16.73;;;8.63;;
69623;SDS011;56843;52.020;5.670;2022-08-19T05:08:42;15.73;;;8.63;;
69623;SDS011;56843;52.020;5.670;2022-08-19T05:10:13;17.83;;;9.70;;
69623;SDS011;56843;52.020;5.670;2022-08-19T05:11:44;19.03;;;9.37;;
69623;SDS011;56843;52.020;5.670;2022-08-19T05:13:14;18.88;;;9.73;;
69623;SDS011;56843;52.020;5.670;2022-08-19T05:14:46;16.83;;;9.30;;
69623;SDS011;56843;52.020;5.670;2022-08-19T05:16:19;17.67;;;9.20;;
69623;SDS011;56843;52.020;5.670;2022-08-19T05:17:51;20.57;;;9.43;;
69623;SDS011;56843;52.020;5.670;2022-08-19T05:19:40;21.52;;;9.13;;
69623;SDS011;56843;52.020;5.670;2022-08-19T05:21:29;19.52;;;9.52;;
69623;SDS011;56843;52.020;5.670;2022-08-19T05:23:19;19.85;;;10.40;;
69623;SDS011;56843;52.020;5.670;2022-08-19T05:24:49;17.40;;;9.57;;
69623;SDS011;56843;52.020;5.670;2022-08-19T05:26:20;19.77;;;9.77;;
69623;SDS011;56843;52.020;5.670;2022-08-19T05:27:50;18.73;;;10.27;;
69623;SDS011;56843;52.020;5.670;2022-08-19T05:29:21;22.07;;;11.63;;
69623;SDS011;56843;52.020;5.670;2022-08-19T05:30:51;20.20;;;11.50;;
69623;SDS011;56843;52.020;5.670;2022-08-19T05:32:22;27.33;;;11.37;;
69623;SDS011;56843;52.020;5.670;2022-08-19T05:33:53;21.15;;;10.43;;
69623;SDS011;56843;52.020;5.670;2022-08-19T05:35:23;21.33;;;11.37;;
69623;SDS011;56843;52.020;5.670;2022-08-19T05:36:59;22.23;;;11.27;;
69623;SDS011;56843;52.020;5.670;2022-08-19T05:38:31;21.27;;;10.90;;
69623;SDS011;56843;52.020;5.670;2022-08-19T05:40:02;23.30;;;11.50;;
69623;SDS011;56843;52.020;5.670;2022-08-19T05:41:34;20.02;;;11.43;;
69623;SDS011;56843;52.020;5.670;2022-08-19T05:43:05;21.20;;;10.52;;
69623;SDS011;56843;52.020;5.670;2022-08-19T05:44:39;25.10;;;11.20;;
69623;SDS011;56843;52.020;5.670;2022-08-19T05:46:17;21.70;;;10.97;;
69623;SDS011;56843;52.020;5.670;2022-08-19T05:47:49;24.95;;;10.82;;
69623;SDS011;56843;52.020;5.670;2022-08-19T05:49:21;24.23;;;10.82;;
69623;SDS011;56843;52.020;5.670;2022-08-19T05:50:52;26.20;;;11.80;;
69623;SDS011;56843;52.020;5.670;2022-08-19T05:52:23;30.50;;;12.90;;
69623;SDS011;56843;52.020;5.670;2022-08-19T05:53:53;25.00;;;13.33;;
69623;SDS011;56843;52.020;5.670;2022-08-19T05:55:23;31.07;;;13.63;;
69623;SDS011;56843;52.020;5.670;2022-08-19T05:56:54;29.08;;;14.48;;
69623;SDS011;56843;52.020;5.670;2022-08-19T05:58:24;34.37;;;14.93;;
69623;SDS011;56843;52.020;5.670;2022-08-19T05:59:56;36.75;;;15.40;;
69623;SDS011;56843;52.020;5.670;2022-08-19T06:01:30;35.00;;;14.07;;
69623;SDS011;56843;52.020;5.670;2022-08-19T06:03:00;27.83;;;13.43;;
69623;SDS011;56843;52.020;5.670;2022-08-19T06:04:33;25.60;;;12.35;;
69623;SDS011;56843;52.020;5.670;2022-08-19T06:06:04;28.47;;;13.10;;
69623;SDS011;56843;52.020;5.670;2022-08-19T06:07:36;29.57;;;13.00;;
69623;SDS011;56843;52.020;5.670;2022-08-19T06:09:07;29.15;;;13.90;;
69623;SDS011;56843;52.020;5.670;2022-08-19T06:10:38;28.80;;;14.23;;
69623;SDS011;56843;52.020;5.670;2022-08-19T06:12:08;35.37;;;14.83;;
69623;SDS011;56843;52.020;5.670;2022-08-19T06:13:38;31.73;;;14.77;;
69623;SDS011;56843;52.020;5.670;2022-08-19T06:15:10;36.97;;;16.10;;
69623;SDS011;56843;52.020;5.670;2022-08-19T06:16:42;35.85;;;15.98;;
69623;SDS011;56843;52.020;5.670;2022-08-19T06:18:13;40.75;;;15.90;;
69623;SDS011;56843;52.020;5.670;2022-08-19T06:19:44;36.47;;;15.13;;
69623;SDS011;56843;52.020;5.670;2022-08-19T06:21:15;37.10;;;16.33;;
69623;SDS011;56843;52.020;5.670;2022-08-19T06:22:46;44.00;;;17.03;;
69623;SDS011;56843;52.020;5.670;2022-08-19T06:24:21;31.65;;;15.38;;
69623;SDS011;56843;52.020;5.670;2022-08-19T06:25:53;43.55;;;16.45;;
69623;SDS011;56843;52.020;5.670;2022-08-19T06:27:24;40.33;;;16.13;;
69623;SDS011;56843;52.020;5.670;2022-08-19T06:28:55;41.30;;;17.33;;
69623;SDS011;56843;52.020;5.670;2022-08-19T06:30:25;40.20;;;16.70;;
69623;SDS011;56843;52.020;5.670;2022-08-19T06:31:57;54.78;;;18.95;;
69623;SDS011;56843;52.020;5.670;2022-08-19T06:33:29;53.10;;;18.67;;
69623;SDS011;56843;52.020;5.670;2022-08-19T06:35:00;47.17;;;18.80;;
69623;SDS011;56843;52.020;5.670;2022-08-19T06:36:41;52.97;;;20.00;;
69623;SDS011;56843;52.020;5.670;2022-08-19T06:38:14;63.08;;;21.15;;
69623;SDS011;56843;52.020;5.670;2022-08-19T06:39:44;65.20;;;21.60;;
69623;SDS011;56843;52.020;5.670;2022-08-19T06:41:15;61.03;;;22.70;;
69623;SDS011;56843;52.020;5.670;2022-08-19T06:42:45;75.97;;;27.20;;
69623;SDS011;56843;52.020;5.670;2022-08-19T06:44:16;80.27;;;27.13;;
69623;SDS011;56843;52.020;5.670;2022-08-19T06:45:50;73.03;;;25.80;;
69623;SDS011;56843;52.020;5.670;2022-08-19T06:47:21;84.53;;;26.92;;
69623;SDS011;56843;52.020;5.670;2022-08-19T06:48:52;94.25;;;26.58;;
69623;SDS011;56843;52.020;5.670;2022-08-19T06:50:24;101.83;;;31.33;;
69623;SDS011;56843;52.020;5.670;2022-08-19T06:51:54;88.10;;;28.17;;
69623;SDS011;56843;52.020;5.670;2022-08-19T06:53:26;120.53;;;32.08;;
69623;SDS011;56843;52.020;5.670;2022-08-19T06:54:59;112.78;;;31.02;;
69623;SDS011;56843;52.020;5.670;2022-08-19T06:56:30;118.27;;;32.97;;
69623;SDS011;56843;52.020;5.670;2022-08-19T06:58:04;125.10;;;30.83;;
69623;SDS011;56843;52.020;5.670;2022-08-19T06:59:35;112.07;;;30.13;;
69623;SDS011;56843;52.020;5.670;2022-08-19T07:01:06;119.00;;;31.52;;
69623;SDS011;56843;52.020;5.670;2022-08-19T07:02:37;104.78;;;28.30;;
69623;SDS011;56843;52.020;5.670;2022-08-19T07:04:08;134.67;;;33.80;;
69623;SDS011;56843;52.020;5.670;2022-08-19T07:05:40;115.85;;;31.05;;
69623;SDS011;56843;52.020;5.670;2022-08-19T07:07:12;94.25;;;29.88;;
69623;SDS011;56843;52.020;5.670;2022-08-19T07:08:44;112.53;;;33.20;;
69623;SDS011;56843;52.020;5.670;2022-08-19T07:10:16;104.67;;;29.87;;
69623;SDS011;56843;52.020;5.670;2022-08-19T07:11:48;98.78;;;30.73;;
69623;SDS011;56843;52.020;5.670;2022-08-19T07:13:22;90.32;;;29.40;;
69623;SDS011;56843;52.020;5.670;2022-08-19T07:14:53;76.75;;;28.67;;
69623;SDS011;56843;52.020;5.670;2022-08-19T07:16:24;87.63;;;29.20;;
69623;SDS011;56843;52.020;5.670;2022-08-19T07:17:55;80.25;;;28.65;;
69623;SDS011;56843;52.020;5.670;2022-08-19T07:19:26;78.32;;;27.92;;
69623;SDS011;56843;52.020;5.670;2022-08-19T07:21:30;88.27;;;30.97;;
69623;SDS011;56843;52.020;5.670;2022-08-19T07:22:57;77.63;;;26.47;;
69623;SDS011;56843;52.020;5.670;2022-08-19T07:24:28;76.28;;;28.92;;
69623;SDS011;56843;52.020;5.670;2022-08-19T07:26:07;73.13;;;30.40;;
69623;SDS011;56843;52.020;5.670;2022-08-19T07:27:40;74.28;;;31.15;;
69623;SDS011;56843;52.020;5.670;2022-08-19T07:29:11;70.57;;;28.83;;
69623;SDS011;56843;52.020;5.670;2022-08-19T07:30:42;80.35;;;31.63;;
69623;SDS011;56843;52.020;5.670;2022-08-19T07:32:12;77.87;;;31.93;;
69623;SDS011;56843;52.020;5.670;2022-08-19T07:33:43;77.97;;;30.53;;
69623;SDS011;56843;52.020;5.670;2022-08-19T07:35:15;73.00;;;30.55;;
69623;SDS011;56843;52.020;5.670;2022-08-19T07:36:49;72.13;;;28.23;;
69623;SDS011;56843;52.020;5.670;2022-08-19T07:38:20;70.25;;;31.05;;
69623;SDS011;56843;52.020;5.670;2022-08-19T07:39:50;66.13;;;28.80;;
69623;SDS011;56843;52.020;5.670;2022-08-19T07:41:22;63.47;;;27.80;;
69623;SDS011;56843;52.020;5.670;2022-08-19T07:42:54;73.00;;;29.00;;
69623;SDS011;56843;52.020;5.670;2022-08-19T07:44:25;77.95;;;28.88;;
69623;SDS011;56843;52.020;5.670;2022-08-19T07:45:56;68.60;;;28.27;;
69623;SDS011;56843;52.020;5.670;2022-08-19T07:47:27;70.45;;;28.30;;
69623;SDS011;56843;52.020;5.670;2022-08-19T07:48:58;66.47;;;27.67;;
69623;SDS011;56843;52.020;5.670;2022-08-19T07:50:30;64.57;;;28.67;;
69623;SDS011;56843;52.020;5.670;2022-08-19T07:52:02;72.40;;;29.47;;
69623;SDS011;56843;52.020;5.670;2022-08-19T07:53:35;68.35;;;30.95;;
69623;SDS011;56843;52.020;5.670;2022-08-19T07:55:08;61.80;;;28.40;;
69623;SDS011;56843;52.020;5.670;2022-08-19T07:56:40;62.95;;;30.20;;
69623;SDS011;56843;52.020;5.670;2022-08-19T07:58:11;64.05;;;29.45;;
69623;SDS011;56843;52.020;5.670;2022-08-19T07:59:43;62.50;;;28.80;;
69623;SDS011;56843;52.020;5.670;2022-08-19T08:01:15;62.87;;;26.33;;
69623;SDS011;56843;52.020;5.670;2022-08-19T08:02:52;65.38;;;27.73;;
69623;SDS011;56843;52.020;5.670;2022-08-19T08:04:22;62.55;;;27.48;;
69623;SDS011;56843;52.020;5.670;2022-08-19T08:06:25;58.83;;;26.65;;
69623;SDS011;56843;52.020;5.670;2022-08-19T08:08:15;57.13;;;26.70;;
69623;SDS011;56843;52.020;5.670;2022-08-19T08:10:04;57.77;;;26.07;;
69623;SDS011;56843;52.020;5.670;2022-08-19T08:11:40;54.45;;;25.35;;
69623;SDS011;56843;52.020;5.670;2022-08-19T08:13:19;54.63;;;24.50;;
69623;SDS011;56843;52.020;5.670;2022-08-19T08:14:52;51.67;;;25.00;;
69623;SDS011;56843;52.020;5.670;2022-08-19T08:16:25;52.33;;;24.40;;
69623;SDS011;56843;52.020;5.670;2022-08-19T08:17:59;50.78;;;24.42;;
69623;SDS011;56843;52.020;5.670;2022-08-19T08:19:30;49.77;;;23.37;;
69623;SDS011;56843;52.020;5.670;2022-08-19T08:21:01;45.30;;;21.48;;
69623;SDS011;56843;52.020;5.670;2022-08-19T08:22:32;50.37;;;25.03;;
69623;SDS011;56843;52.020;5.670;2022-08-19T08:24:21;47.97;;;23.15;;
69623;SDS011;56843;52.020;5.670;2022-08-19T08:25:54;53.30;;;24.90;;
69623;SDS011;56843;52.020;5.670;2022-08-19T08:27:26;55.63;;;26.10;;
69623;SDS011;56843;52.020;5.670;2022-08-19T08:28:59;47.13;;;22.98;;
69623;SDS011;56843;52.020;5.670;2022-08-19T08:30:30;49.63;;;24.83;;
69623;SDS011;56843;52.020;5.670;2022-08-19T08:32:03;44.13;;;22.67;;
69623;SDS011;56843;52.020;5.670;2022-08-19T08:33:33;50.23;;;24.77;;
69623;SDS011;56843;52.020;5.670;2022-08-19T08:35:05;45.20;;;24.13;;
69623;SDS011;56843;52.020;5.670;2022-08-19T08:36:41;43.47;;;23.50;;
69623;SDS011;56843;52.020;5.670;2022-08-19T08:38:14;48.75;;;22.70;;
69623;SDS011;56843;52.020;5.670;2022-08-19T08:39:45;40.07;;;21.40;;
69623;SDS011;56843;52.020;5.670;2022-08-19T08:41:33;44.60;;;22.10;;
69623;SDS011;56843;52.020;5.670;2022-08-19T08:43:17;48.25;;;22.88;;
69623;SDS011;56843;52.020;5.670;2022-08-19T08:44:53;39.13;;;20.77;;
69623;SDS011;56843;52.020;5.670;2022-08-19T08:48:45;40.33;;;21.08;;
69623;SDS011;56843;52.020;5.670;2022-08-19T08:50:20;43.90;;;22.85;;
69623;SDS011;56843;52.020;5.670;2022-08-19T08:52:00;39.28;;;22.20;;
69623;SDS011;56843;52.020;5.670;2022-08-19T08:53:35;46.73;;;22.27;;
69623;SDS011;56843;52.020;5.670;2022-08-19T08:55:09;38.73;;;20.33;;
69623;SDS011;56843;52.020;5.670;2022-08-19T08:56:42;42.40;;;20.80;;
69623;SDS011;56843;52.020;5.670;2022-08-19T08:58:17;40.35;;;20.42;;
69623;SDS011;56843;52.020;5.670;2022-08-19T09:00:29;35.15;;;18.85;;
69623;SDS011;56843;52.020;5.670;2022-08-19T09:02:02;30.50;;;16.55;;
69623;SDS011;56843;52.020;5.670;2022-08-19T09:03:33;28.93;;;15.10;;
69623;SDS011;56843;52.020;5.670;2022-08-19T09:05:04;33.58;;;16.60;;
69623;SDS011;56843;52.020;5.670;2022-08-19T09:06:50;34.03;;;17.60;;
69623;SDS011;56843;52.020;5.670;2022-08-19T09:08:48;38.20;;;17.83;;
69623;SDS011;56843;52.020;5.670;2022-08-19T09:10:30;32.70;;;15.65;;